sensor_id;sensor_type;location;lat;lon;timestamp;P1;durP1;ratioP1;P2;durP2;ratioP2
3307;SDS011;1666;48.898;9.182;2023-09-19T00:01:00;2.53;;;0.73;;
3307;SDS011;1666;48.898;9.182;2023-09-19T00:03:33;1.83;;;0.80;;
3307;SDS011;1666;48.898;9.182;2023-09-19T00:06:04;2.25;;;0.88;;
3307;SDS011;1666;48.898;9.182;2023-09-19T00:08:35;2.20;;;0.90;;
3307;SDS011;1666;48.898;9.182;2023-09-19T00:11:08;2.50;;;0.88;;
3307;SDS011;1666;48.898;9.182;2023-09-19T00:13:38;3.30;;;1.00;;
3307;SDS011;1666;48.898;9.182;2023-09-19T00:16:09;2.15;;;0.90;;
3307;SDS011;1666;48.898;9.182;2023-09-19T00:18:41;1.60;;;0.70;;
3307;SDS011;1666;48.898;9.182;2023-09-19T00:21:11;1.90;;;0.90;;
3307;SDS011;1666;48.898;9.182;2023-09-19T00:23:41;3.38;;;0.90;;
3307;SDS011;1666;48.898;9.182;2023-09-19T00:26:14;1.38;;;1.10;;
3307;SDS011;1666;48.898;9.182;2023-09-19T00:28:44;2.20;;;0.90;;
3307;SDS011;1666;48.898;9.182;2023-09-19T00:31:15;3.47;;;0.80;;
3307;SDS011;1666;48.898;9.182;2023-09-19T00:33:45;2.00;;;1.00;;
3307;SDS011;1666;48.898;9.182;2023-09-19T00:36:15;2.20;;;1.23;;
3307;SDS011;1666;48.898;9.182;2023-09-19T00:38:45;2.65;;;1.00;;
3307;SDS011;1666;48.898;9.182;2023-09-19T00:41:17;2.75;;;1.08;;
3307;SDS011;1666;48.898;9.182;2023-09-19T00:43:47;1.77;;;0.93;;
3307;SDS011;1666;48.898;9.182;2023-09-19T00:46:17;1.73;;;0.90;;
3307;SDS011;1666;48.898;9.182;2023-09-19T00:48:47;1.60;;;0.80;;
3307;SDS011;1666;48.898;9.182;2023-09-19T00:51:17;1.45;;;0.98;;
3307;SDS011;1666;48.898;9.182;2023-09-19T00:53:49;3.50;;;1.13;;
3307;SDS011;1666;48.898;9.182;2023-09-19T00:56:22;1.10;;;0.88;;
3307;SDS011;1666;48.898;9.182;2023-09-19T00:58:53;2.05;;;0.82;;
3307;SDS011;1666;48.898;9.182;2023-09-19T01:01:23;3.03;;;1.23;;
3307;SDS011;1666;48.898;9.182;2023-09-19T01:03:54;1.52;;;1.00;;
3307;SDS011;1666;48.898;9.182;2023-09-19T01:06:24;1.40;;;0.75;;
3307;SDS011;1666;48.898;9.182;2023-09-19T01:08:55;2.55;;;1.02;;
3307;SDS011;1666;48.898;9.182;2023-09-19T01:11:28;1.27;;;0.82;;
3307;SDS011;1666;48.898;9.182;2023-09-19T01:14:09;1.73;;;0.90;;
3307;SDS011;1666;48.898;9.182;2023-09-19T01:16:50;1.70;;;0.60;;
3307;SDS011;1666;48.898;9.182;2023-09-19T01:19:33;1.33;;;0.80;;
3307;SDS011;1666;48.898;9.182;2023-09-19T01:22:29;1.88;;;0.70;;
3307;SDS011;1666;48.898;9.182;2023-09-19T01:28:25;2.35;;;1.05;;
3307;SDS011;1666;48.898;9.182;2023-09-19T01:31:06;3.28;;;0.80;;
3307;SDS011;1666;48.898;9.182;2023-09-19T01:36:31;2.03;;;0.80;;
3307;SDS011;1666;48.898;9.182;2023-09-19T01:39:05;1.30;;;0.90;;
3307;SDS011;1666;48.898;9.182;2023-09-19T01:41:55;3.15;;;1.15;;
3307;SDS011;1666;48.898;9.182;2023-09-19T01:44:33;2.83;;;0.85;;
3307;SDS011;1666;48.898;9.182;2023-09-19T01:47:15;2.85;;;1.10;;
3307;SDS011;1666;48.898;9.182;2023-09-19T01:49:50;2.90;;;1.38;;
3307;SDS011;1666;48.898;9.182;2023-09-19T01:52:25;1.67;;;0.85;;
3307;SDS011;1666;48.898;9.182;2023-09-19T01:55:02;1.83;;;0.68;;
3307;SDS011;1666;48.898;9.182;2023-09-19T01:57:36;0.75;;;0.60;;
3307;SDS011;1666;48.898;9.182;2023-09-19T02:00:11;2.17;;;0.90;;
3307;SDS011;1666;48.898;9.182;2023-09-19T02:02:47;1.33;;;0.70;;
3307;SDS011;1666;48.898;9.182;2023-09-19T02:05:22;2.47;;;0.80;;
3307;SDS011;1666;48.898;9.182;2023-09-19T02:07:53;1.35;;;0.70;;
3307;SDS011;1666;48.898;9.182;2023-09-19T02:10:25;2.10;;;0.90;;
3307;SDS011;1666;48.898;9.182;2023-09-19T02:12:55;3.05;;;1.02;;
3307;SDS011;1666;48.898;9.182;2023-09-19T02:15:25;3.58;;;0.88;;
3307;SDS011;1666;48.898;9.182;2023-09-19T02:18:01;1.48;;;0.93;;
3307;SDS011;1666;48.898;9.182;2023-09-19T02:20:32;1.23;;;0.95;;
3307;SDS011;1666;48.898;9.182;2023-09-19T02:23:02;2.25;;;0.80;;
3307;SDS011;1666;48.898;9.182;2023-09-19T02:25:32;3.35;;;0.80;;
3307;SDS011;1666;48.898;9.182;2023-09-19T02:28:02;3.03;;;0.80;;
3307;SDS011;1666;48.898;9.182;2023-09-19T02:30:33;1.98;;;1.10;;
3307;SDS011;1666;48.898;9.182;2023-09-19T02:33:06;2.47;;;0.80;;
3307;SDS011;1666;48.898;9.182;2023-09-19T02:35:36;1.55;;;0.80;;
3307;SDS011;1666;48.898;9.182;2023-09-19T02:38:06;1.85;;;1.05;;
3307;SDS011;1666;48.898;9.182;2023-09-19T02:40:38;1.83;;;1.25;;
3307;SDS011;1666;48.898;9.182;2023-09-19T02:43:10;1.58;;;0.80;;
3307;SDS011;1666;48.898;9.182;2023-09-19T02:45:40;2.65;;;1.00;;
3307;SDS011;1666;48.898;9.182;2023-09-19T02:48:12;1.58;;;0.80;;
3307;SDS011;1666;48.898;9.182;2023-09-19T02:50:42;1.13;;;0.60;;
3307;SDS011;1666;48.898;9.182;2023-09-19T02:53:13;2.22;;;1.00;;
3307;SDS011;1666;48.898;9.182;2023-09-19T02:55:43;1.00;;;0.70;;
3307;SDS011;1666;48.898;9.182;2023-09-19T02:58:10;1.67;;;0.80;;
3307;SDS011;1666;48.898;9.182;2023-09-19T03:00:41;1.45;;;0.85;;
3307;SDS011;1666;48.898;9.182;2023-09-19T03:03:17;1.70;;;1.00;;
3307;SDS011;1666;48.898;9.182;2023-09-19T03:05:47;2.95;;;1.08;;
3307;SDS011;1666;48.898;9.182;2023-09-19T03:08:21;1.08;;;0.82;;
3307;SDS011;1666;48.898;9.182;2023-09-19T03:10:51;1.42;;;0.88;;
3307;SDS011;1666;48.898;9.182;2023-09-19T03:13:21;2.70;;;1.00;;
3307;SDS011;1666;48.898;9.182;2023-09-19T03:15:53;1.60;;;1.00;;
3307;SDS011;1666;48.898;9.182;2023-09-19T03:18:27;1.58;;;0.80;;
3307;SDS011;1666;48.898;9.182;2023-09-19T03:20:58;2.30;;;0.90;;
3307;SDS011;1666;48.898;9.182;2023-09-19T03:23:29;1.05;;;0.80;;
3307;SDS011;1666;48.898;9.182;2023-09-19T03:25:59;2.40;;;0.90;;
3307;SDS011;1666;48.898;9.182;2023-09-19T03:28:32;3.42;;;1.00;;
3307;SDS011;1666;48.898;9.182;2023-09-19T03:31:03;1.98;;;0.80;;
3307;SDS011;1666;48.898;9.182;2023-09-19T03:33:37;1.90;;;0.90;;
3307;SDS011;1666;48.898;9.182;2023-09-19T03:36:07;2.63;;;1.20;;
3307;SDS011;1666;48.898;9.182;2023-09-19T03:38:37;1.52;;;0.93;;
3307;SDS011;1666;48.898;9.182;2023-09-19T03:41:07;2.40;;;0.98;;
3307;SDS011;1666;48.898;9.182;2023-09-19T03:43:41;2.73;;;1.07;;
3307;SDS011;1666;48.898;9.182;2023-09-19T03:46:11;3.03;;;1.02;;
3307;SDS011;1666;48.898;9.182;2023-09-19T03:48:44;2.17;;;0.98;;
3307;SDS011;1666;48.898;9.182;2023-09-19T03:51:14;1.30;;;0.70;;
3307;SDS011;1666;48.898;9.182;2023-09-19T03:53:44;2.00;;;0.70;;
3307;SDS011;1666;48.898;9.182;2023-09-19T03:56:15;1.75;;;0.88;;
3307;SDS011;1666;48.898;9.182;2023-09-19T03:58:45;0.85;;;0.68;;
3307;SDS011;1666;48.898;9.182;2023-09-19T04:01:15;2.20;;;1.13;;
3307;SDS011;1666;48.898;9.182;2023-09-19T04:03:48;2.70;;;1.00;;
3307;SDS011;1666;48.898;9.182;2023-09-19T04:06:20;2.47;;;1.20;;
3307;SDS011;1666;48.898;9.182;2023-09-19T04:08:50;2.70;;;1.13;;
3307;SDS011;1666;48.898;9.182;2023-09-19T04:11:21;1.50;;;1.00;;
3307;SDS011;1666;48.898;9.182;2023-09-19T04:13:51;1.50;;;0.85;;
3307;SDS011;1666;48.898;9.182;2023-09-19T04:16:21;2.45;;;1.10;;
3307;SDS011;1666;48.898;9.182;2023-09-19T04:18:53;2.25;;;1.05;;
3307;SDS011;1666;48.898;9.182;2023-09-19T04:21:23;4.43;;;1.38;;
3307;SDS011;1666;48.898;9.182;2023-09-19T04:23:54;2.58;;;1.02;;
3307;SDS011;1666;48.898;9.182;2023-09-19T04:26:24;2.83;;;1.10;;
3307;SDS011;1666;48.898;9.182;2023-09-19T04:28:54;2.33;;;1.20;;
3307;SDS011;1666;48.898;9.182;2023-09-19T04:31:25;1.70;;;1.10;;
3307;SDS011;1666;48.898;9.182;2023-09-19T04:33:58;4.00;;;1.00;;
3307;SDS011;1666;48.898;9.182;2023-09-19T04:36:31;1.50;;;0.93;;
3307;SDS011;1666;48.898;9.182;2023-09-19T04:39:03;1.48;;;0.90;;
3307;SDS011;1666;48.898;9.182;2023-09-19T04:41:34;3.55;;;1.10;;
3307;SDS011;1666;48.898;9.182;2023-09-19T04:44:05;2.78;;;1.10;;
3307;SDS011;1666;48.898;9.182;2023-09-19T04:46:35;2.38;;;1.40;;
3307;SDS011;1666;48.898;9.182;2023-09-19T04:49:08;2.17;;;1.20;;
3307;SDS011;1666;48.898;9.182;2023-09-19T04:51:38;2.63;;;1.23;;
3307;SDS011;1666;48.898;9.182;2023-09-19T04:54:09;2.72;;;1.10;;
3307;SDS011;1666;48.898;9.182;2023-09-19T04:56:39;3.40;;;1.50;;
3307;SDS011;1666;48.898;9.182;2023-09-19T04:59:09;2.83;;;1.05;;
3307;SDS011;1666;48.898;9.182;2023-09-19T05:01:41;3.75;;;1.50;;
3307;SDS011;1666;48.898;9.182;2023-09-19T05:04:14;4.25;;;1.52;;
3307;SDS011;1666;48.898;9.182;2023-09-19T05:06:44;1.98;;;1.45;;
3307;SDS011;1666;48.898;9.182;2023-09-19T05:09:14;3.30;;;1.52;;
3307;SDS011;1666;48.898;9.182;2023-09-19T05:11:46;3.45;;;1.45;;
3307;SDS011;1666;48.898;9.182;2023-09-19T05:14:17;3.60;;;1.65;;
3307;SDS011;1666;48.898;9.182;2023-09-19T05:16:49;3.25;;;1.80;;
3307;SDS011;1666;48.898;9.182;2023-09-19T05:19:21;3.00;;;2.00;;
3307;SDS011;1666;48.898;9.182;2023-09-19T05:21:52;5.30;;;2.17;;
3307;SDS011;1666;48.898;9.182;2023-09-19T05:24:21;6.13;;;2.55;;
3307;SDS011;1666;48.898;9.182;2023-09-19T05:26:53;5.63;;;2.90;;
3307;SDS011;1666;48.898;9.182;2023-09-19T05:29:23;2.20;;;2.00;;
3307;SDS011;1666;48.898;9.182;2023-09-19T05:31:53;5.70;;;2.55;;
3307;SDS011;1666;48.898;9.182;2023-09-19T05:34:25;3.33;;;1.77;;
3307;SDS011;1666;48.898;9.182;2023-09-19T05:36:57;3.28;;;2.22;;
3307;SDS011;1666;48.898;9.182;2023-09-19T05:39:26;3.60;;;2.28;;
3307;SDS011;1666;48.898;9.182;2023-09-19T05:41:56;3.38;;;2.10;;
3307;SDS011;1666;48.898;9.182;2023-09-19T05:44:26;3.45;;;2.95;;
3307;SDS011;1666;48.898;9.182;2023-09-19T05:46:56;3.03;;;2.33;;
3307;SDS011;1666;48.898;9.182;2023-09-19T05:49:29;3.35;;;2.25;;
3307;SDS011;1666;48.898;9.182;2023-09-19T05:51:59;5.70;;;2.72;;
3307;SDS011;1666;48.898;9.182;2023-09-19T05:54:29;3.08;;;2.22;;
3307;SDS011;1666;48.898;9.182;2023-09-19T05:57:00;5.43;;;2.35;;
3307;SDS011;1666;48.898;9.182;2023-09-19T05:59:30;6.15;;;2.33;;
3307;SDS011;1666;48.898;9.182;2023-09-19T06:02:00;6.93;;;2.80;;
3307;SDS011;1666;48.898;9.182;2023-09-19T06:04:35;4.63;;;2.80;;
3307;SDS011;1666;48.898;9.182;2023-09-19T06:07:07;5.13;;;2.40;;
3307;SDS011;1666;48.898;9.182;2023-09-19T06:09:37;6.32;;;2.30;;
3307;SDS011;1666;48.898;9.182;2023-09-19T06:12:07;5.22;;;2.50;;
3307;SDS011;1666;48.898;9.182;2023-09-19T06:14:39;4.43;;;2.40;;
3307;SDS011;1666;48.898;9.182;2023-09-19T06:17:09;5.97;;;2.72;;
3307;SDS011;1666;48.898;9.182;2023-09-19T06:19:42;4.45;;;2.40;;
3307;SDS011;1666;48.898;9.182;2023-09-19T06:24:44;4.70;;;2.65;;
3307;SDS011;1666;48.898;9.182;2023-09-19T06:27:14;3.95;;;2.22;;
3307;SDS011;1666;48.898;9.182;2023-09-19T06:29:44;6.30;;;2.47;;
3307;SDS011;1666;48.898;9.182;2023-09-19T06:32:14;4.25;;;1.90;;
3307;SDS011;1666;48.898;9.182;2023-09-19T06:34:51;3.83;;;2.13;;
3307;SDS011;1666;48.898;9.182;2023-09-19T06:37:21;4.22;;;2.40;;
3307;SDS011;1666;48.898;9.182;2023-09-19T06:39:52;6.53;;;2.10;;
3307;SDS011;1666;48.898;9.182;2023-09-19T06:42:22;4.75;;;2.13;;
3307;SDS011;1666;48.898;9.182;2023-09-19T06:44:54;5.82;;;2.15;;
3307;SDS011;1666;48.898;9.182;2023-09-19T06:47:24;5.53;;;1.90;;
3307;SDS011;1666;48.898;9.182;2023-09-19T06:49:57;4.20;;;1.83;;
3307;SDS011;1666;48.898;9.182;2023-09-19T06:52:29;6.72;;;2.85;;
3307;SDS011;1666;48.898;9.182;2023-09-19T06:54:59;4.63;;;2.40;;
3307;SDS011;1666;48.898;9.182;2023-09-19T06:57:29;6.80;;;2.10;;
3307;SDS011;1666;48.898;9.182;2023-09-19T06:59:59;9.82;;;2.40;;
3307;SDS011;1666;48.898;9.182;2023-09-19T07:02:34;5.10;;;1.90;;
3307;SDS011;1666;48.898;9.182;2023-09-19T07:05:07;8.85;;;2.13;;
3307;SDS011;1666;48.898;9.182;2023-09-19T07:07:37;3.45;;;1.95;;
3307;SDS011;1666;48.898;9.182;2023-09-19T07:10:07;6.43;;;1.90;;
3307;SDS011;1666;48.898;9.182;2023-09-19T07:12:39;4.35;;;1.90;;
3307;SDS011;1666;48.898;9.182;2023-09-19T07:15:10;4.60;;;2.33;;
3307;SDS011;1666;48.898;9.182;2023-09-19T07:17:40;3.83;;;2.20;;
3307;SDS011;1666;48.898;9.182;2023-09-19T07:20:13;4.20;;;1.80;;
3307;SDS011;1666;48.898;9.182;2023-09-19T07:22:43;4.18;;;1.88;;
3307;SDS011;1666;48.898;9.182;2023-09-19T07:25:12;7.15;;;2.58;;
3307;SDS011;1666;48.898;9.182;2023-09-19T07:27:43;5.90;;;1.80;;
3307;SDS011;1666;48.898;9.182;2023-09-19T07:30:13;5.82;;;1.80;;
3307;SDS011;1666;48.898;9.182;2023-09-19T07:32:43;4.65;;;2.05;;
3307;SDS011;1666;48.898;9.182;2023-09-19T07:35:15;6.88;;;2.00;;
3307;SDS011;1666;48.898;9.182;2023-09-19T07:37:46;5.37;;;2.20;;
3307;SDS011;1666;48.898;9.182;2023-09-19T07:40:19;6.25;;;1.90;;
3307;SDS011;1666;48.898;9.182;2023-09-19T07:42:50;6.82;;;2.15;;
3307;SDS011;1666;48.898;9.182;2023-09-19T07:45:20;5.35;;;1.92;;
3307;SDS011;1666;48.898;9.182;2023-09-19T07:47:51;4.55;;;2.00;;
3307;SDS011;1666;48.898;9.182;2023-09-19T07:50:24;6.03;;;1.70;;
3307;SDS011;1666;48.898;9.182;2023-09-19T07:52:55;5.72;;;1.83;;
3307;SDS011;1666;48.898;9.182;2023-09-19T07:55:25;4.40;;;1.95;;
3307;SDS011;1666;48.898;9.182;2023-09-19T07:57:56;3.63;;;1.80;;
3307;SDS011;1666;48.898;9.182;2023-09-19T08:00:26;6.40;;;2.28;;
3307;SDS011;1666;48.898;9.182;2023-09-19T08:02:56;5.57;;;1.70;;
3307;SDS011;1666;48.898;9.182;2023-09-19T08:05:36;5.53;;;1.63;;
3307;SDS011;1666;48.898;9.182;2023-09-19T08:08:07;3.40;;;1.80;;
3307;SDS011;1666;48.898;9.182;2023-09-19T08:10:40;3.95;;;1.92;;
3307;SDS011;1666;48.898;9.182;2023-09-19T08:13:12;2.38;;;1.50;;
3307;SDS011;1666;48.898;9.182;2023-09-19T08:15:44;2.75;;;1.45;;
3307;SDS011;1666;48.898;9.182;2023-09-19T08:18:14;2.97;;;1.13;;
3307;SDS011;1666;48.898;9.182;2023-09-19T08:20:51;3.65;;;1.40;;
3307;SDS011;1666;48.898;9.182;2023-09-19T08:23:22;2.15;;;1.40;;
3307;SDS011;1666;48.898;9.182;2023-09-19T08:25:55;4.18;;;1.00;;
3307;SDS011;1666;48.898;9.182;2023-09-19T08:28:33;4.22;;;1.30;;
3307;SDS011;1666;48.898;9.182;2023-09-19T08:31:03;3.55;;;1.13;;
3307;SDS011;1666;48.898;9.182;2023-09-19T08:33:36;2.38;;;1.20;;
3307;SDS011;1666;48.898;9.182;2023-09-19T08:36:10;2.28;;;1.20;;
3307;SDS011;1666;48.898;9.182;2023-09-19T08:38:40;3.90;;;1.27;;
3307;SDS011;1666;48.898;9.182;2023-09-19T08:41:10;2.35;;;1.02;;
3307;SDS011;1666;48.898;9.182;2023-09-19T08:43:40;1.63;;;0.80;;
3307;SDS011;1666;48.898;9.182;2023-09-19T08:46:11;2.05;;;0.90;;
3307;SDS011;1666;48.898;9.182;2023-09-19T08:48:45;3.28;;;1.08;;
3307;SDS011;1666;48.898;9.182;2023-09-19T08:51:26;3.22;;;1.13;;
3307;SDS011;1666;48.898;9.182;2023-09-19T08:54:02;1.77;;;1.10;;
3307;SDS011;1666;48.898;9.182;2023-09-19T08:56:36;3.05;;;1.45;;
3307;SDS011;1666;48.898;9.182;2023-09-19T08:59:08;5.35;;;1.17;;
3307;SDS011;1666;48.898;9.182;2023-09-19T09:01:40;2.17;;;1.17;;
3307;SDS011;1666;48.898;9.182;2023-09-19T09:04:11;1.83;;;1.10;;
3307;SDS011;1666;48.898;9.182;2023-09-19T09:06:44;1.65;;;1.10;;
3307;SDS011;1666;48.898;9.182;2023-09-19T09:09:15;2.38;;;1.20;;
3307;SDS011;1666;48.898;9.182;2023-09-19T09:11:45;2.38;;;1.17;;
3307;SDS011;1666;48.898;9.182;2023-09-19T09:14:19;1.63;;;1.10;;
3307;SDS011;1666;48.898;9.182;2023-09-19T09:16:51;4.47;;;1.30;;
3307;SDS011;1666;48.898;9.182;2023-09-19T09:19:23;3.00;;;1.10;;
3307;SDS011;1666;48.898;9.182;2023-09-19T09:21:56;2.40;;;0.98;;
3307;SDS011;1666;48.898;9.182;2023-09-19T09:24:36;2.70;;;1.00;;
3307;SDS011;1666;48.898;9.182;2023-09-19T09:27:06;3.95;;;1.20;;
3307;SDS011;1666;48.898;9.182;2023-09-19T09:29:41;3.08;;;1.00;;
3307;SDS011;1666;48.898;9.182;2023-09-19T09:32:19;2.72;;;0.90;;
3307;SDS011;1666;48.898;9.182;2023-09-19T09:34:51;3.08;;;1.10;;
3307;SDS011;1666;48.898;9.182;2023-09-19T09:37:28;2.03;;;1.20;;
3307;SDS011;1666;48.898;9.182;2023-09-19T09:40:02;2.67;;;1.10;;
3307;SDS011;1666;48.898;9.182;2023-09-19T09:42:46;2.83;;;1.15;;
3307;SDS011;1666;48.898;9.182;2023-09-19T09:45:19;3.30;;;1.05;;
3307;SDS011;1666;48.898;9.182;2023-09-19T09:47:57;1.30;;;0.90;;
3307;SDS011;1666;48.898;9.182;2023-09-19T09:50:30;2.60;;;1.00;;
3307;SDS011;1666;48.898;9.182;2023-09-19T09:53:23;3.92;;;1.15;;
3307;SDS011;1666;48.898;9.182;2023-09-19T09:55:57;1.42;;;0.93;;
3307;SDS011;1666;48.898;9.182;2023-09-19T09:58:29;1.42;;;0.80;;
3307;SDS011;1666;48.898;9.182;2023-09-19T10:01:02;2.78;;;0.90;;
3307;SDS011;1666;48.898;9.182;2023-09-19T10:03:35;2.17;;;1.23;;
3307;SDS011;1666;48.898;9.182;2023-09-19T10:06:12;2.17;;;1.00;;
3307;SDS011;1666;48.898;9.182;2023-09-19T10:09:00;3.22;;;1.20;;
3307;SDS011;1666;48.898;9.182;2023-09-19T10:11:32;3.67;;;0.98;;
3307;SDS011;1666;48.898;9.182;2023-09-19T10:14:03;3.53;;;1.10;;
3307;SDS011;1666;48.898;9.182;2023-09-19T10:16:37;2.37;;;1.00;;
3307;SDS011;1666;48.898;9.182;2023-09-19T10:19:11;4.00;;;1.15;;
3307;SDS011;1666;48.898;9.182;2023-09-19T10:21:44;2.92;;;1.73;;
3307;SDS011;1666;48.898;9.182;2023-09-19T10:24:18;3.28;;;0.98;;
3307;SDS011;1666;48.898;9.182;2023-09-19T10:26:51;2.58;;;1.25;;
3307;SDS011;1666;48.898;9.182;2023-09-19T10:29:24;1.45;;;0.88;;
3307;SDS011;1666;48.898;9.182;2023-09-19T10:31:58;2.03;;;1.00;;
3307;SDS011;1666;48.898;9.182;2023-09-19T10:34:30;2.38;;;1.33;;
3307;SDS011;1666;48.898;9.182;2023-09-19T10:37:03;2.67;;;0.90;;
3307;SDS011;1666;48.898;9.182;2023-09-19T10:39:38;1.95;;;1.00;;
3307;SDS011;1666;48.898;9.182;2023-09-19T10:44:43;2.10;;;0.90;;
3307;SDS011;1666;48.898;9.182;2023-09-19T10:47:16;1.38;;;0.88;;
3307;SDS011;1666;48.898;9.182;2023-09-19T10:49:47;1.65;;;0.82;;
3307;SDS011;1666;48.898;9.182;2023-09-19T10:52:18;3.67;;;1.05;;
3307;SDS011;1666;48.898;9.182;2023-09-19T10:54:55;2.88;;;1.13;;
3307;SDS011;1666;48.898;9.182;2023-09-19T10:57:28;2.67;;;1.20;;
3307;SDS011;1666;48.898;9.182;2023-09-19T11:00:00;3.30;;;1.30;;
3307;SDS011;1666;48.898;9.182;2023-09-19T11:09:00;2.92;;;1.05;;
3307;SDS011;1666;48.898;9.182;2023-09-19T11:11:51;2.72;;;0.98;;
3307;SDS011;1666;48.898;9.182;2023-09-19T11:14:30;6.13;;;1.10;;
3307;SDS011;1666;48.898;9.182;2023-09-19T11:20:19;4.68;;;1.20;;
3307;SDS011;1666;48.898;9.182;2023-09-19T11:25:49;1.88;;;1.10;;
3307;SDS011;1666;48.898;9.182;2023-09-19T11:28:30;1.85;;;1.00;;
3307;SDS011;1666;48.898;9.182;2023-09-19T11:40:34;1.80;;;1.00;;
3307;SDS011;1666;48.898;9.182;2023-09-19T11:46:03;1.13;;;0.95;;
3307;SDS011;1666;48.898;9.182;2023-09-19T11:48:34;3.67;;;1.20;;
3307;SDS011;1666;48.898;9.182;2023-09-19T11:51:09;3.30;;;1.10;;
3307;SDS011;1666;48.898;9.182;2023-09-19T11:53:46;3.83;;;1.15;;
3307;SDS011;1666;48.898;9.182;2023-09-19T11:56:17;2.65;;;1.00;;
3307;SDS011;1666;48.898;9.182;2023-09-19T11:58:51;3.15;;;1.15;;
3307;SDS011;1666;48.898;9.182;2023-09-19T12:01:28;3.25;;;0.90;;
3307;SDS011;1666;48.898;9.182;2023-09-19T12:04:01;3.72;;;1.35;;
3307;SDS011;1666;48.898;9.182;2023-09-19T12:06:32;3.95;;;1.30;;
3307;SDS011;1666;48.898;9.182;2023-09-19T12:09:05;2.30;;;1.20;;
3307;SDS011;1666;48.898;9.182;2023-09-19T12:11:41;4.70;;;0.90;;
3307;SDS011;1666;48.898;9.182;2023-09-19T12:14:16;4.95;;;1.35;;
3307;SDS011;1666;48.898;9.182;2023-09-19T12:16:53;5.65;;;1.35;;
3307;SDS011;1666;48.898;9.182;2023-09-19T12:19:24;2.60;;;1.20;;
3307;SDS011;1666;48.898;9.182;2023-09-19T12:21:58;2.08;;;1.00;;
3307;SDS011;1666;48.898;9.182;2023-09-19T12:24:31;1.98;;;1.10;;
3307;SDS011;1666;48.898;9.182;2023-09-19T12:27:05;2.55;;;1.00;;
3307;SDS011;1666;48.898;9.182;2023-09-19T12:29:45;2.25;;;0.90;;
3307;SDS011;1666;48.898;9.182;2023-09-19T12:32:16;1.92;;;1.08;;
3307;SDS011;1666;48.898;9.182;2023-09-19T12:34:51;3.28;;;1.05;;
3307;SDS011;1666;48.898;9.182;2023-09-19T12:37:22;3.13;;;1.00;;
3307;SDS011;1666;48.898;9.182;2023-09-19T12:40:03;4.88;;;1.10;;
3307;SDS011;1666;48.898;9.182;2023-09-19T12:42:42;3.85;;;1.30;;
3307;SDS011;1666;48.898;9.182;2023-09-19T12:45:16;1.58;;;0.77;;
3307;SDS011;1666;48.898;9.182;2023-09-19T12:51:00;2.00;;;0.90;;
3307;SDS011;1666;48.898;9.182;2023-09-19T12:53:33;2.17;;;0.77;;
3307;SDS011;1666;48.898;9.182;2023-09-19T12:56:08;1.25;;;0.80;;
3307;SDS011;1666;48.898;9.182;2023-09-19T12:58:50;2.75;;;1.00;;
3307;SDS011;1666;48.898;9.182;2023-09-19T13:01:24;3.45;;;1.08;;
3307;SDS011;1666;48.898;9.182;2023-09-19T13:04:12;2.53;;;0.85;;
3307;SDS011;1666;48.898;9.182;2023-09-19T13:06:45;2.40;;;0.95;;
3307;SDS011;1666;48.898;9.182;2023-09-19T13:09:16;3.78;;;1.05;;
3307;SDS011;1666;48.898;9.182;2023-09-19T13:11:48;6.93;;;1.35;;
3307;SDS011;1666;48.898;9.182;2023-09-19T13:14:20;1.75;;;1.10;;
3307;SDS011;1666;48.898;9.182;2023-09-19T13:16:58;2.08;;;0.90;;
3307;SDS011;1666;48.898;9.182;2023-09-19T13:19:35;3.80;;;0.90;;
3307;SDS011;1666;48.898;9.182;2023-09-19T13:25:10;4.10;;;1.10;;
3307;SDS011;1666;48.898;9.182;2023-09-19T13:27:46;4.93;;;1.00;;
3307;SDS011;1666;48.898;9.182;2023-09-19T13:30:18;4.78;;;1.38;;
3307;SDS011;1666;48.898;9.182;2023-09-19T13:32:52;2.13;;;0.88;;
3307;SDS011;1666;48.898;9.182;2023-09-19T13:35:34;3.50;;;1.00;;
3307;SDS011;1666;48.898;9.182;2023-09-19T13:38:04;4.18;;;1.27;;
3307;SDS011;1666;48.898;9.182;2023-09-19T13:40:36;1.40;;;1.05;;
3307;SDS011;1666;48.898;9.182;2023-09-19T13:43:09;2.45;;;0.88;;
3307;SDS011;1666;48.898;9.182;2023-09-19T13:45:39;1.83;;;1.00;;
3307;SDS011;1666;48.898;9.182;2023-09-19T13:48:12;2.67;;;1.02;;
3307;SDS011;1666;48.898;9.182;2023-09-19T13:50:44;3.00;;;0.90;;
3307;SDS011;1666;48.898;9.182;2023-09-19T13:53:14;4.28;;;0.90;;
3307;SDS011;1666;48.898;9.182;2023-09-19T13:55:48;1.80;;;0.85;;
3307;SDS011;1666;48.898;9.182;2023-09-19T13:58:18;2.17;;;0.80;;
3307;SDS011;1666;48.898;9.182;2023-09-19T14:00:48;1.85;;;1.10;;
3307;SDS011;1666;48.898;9.182;2023-09-19T14:03:24;3.38;;;1.15;;
3307;SDS011;1666;48.898;9.182;2023-09-19T14:05:56;2.50;;;1.08;;
3307;SDS011;1666;48.898;9.182;2023-09-19T14:08:26;3.10;;;0.80;;
3307;SDS011;1666;48.898;9.182;2023-09-19T14:10:56;2.05;;;1.40;;
3307;SDS011;1666;48.898;9.182;2023-09-19T14:13:26;1.48;;;0.88;;
3307;SDS011;1666;48.898;9.182;2023-09-19T14:15:56;3.05;;;1.00;;
3307;SDS011;1666;48.898;9.182;2023-09-19T14:18:30;2.58;;;1.30;;
3307;SDS011;1666;48.898;9.182;2023-09-19T14:21:05;4.63;;;1.27;;
3307;SDS011;1666;48.898;9.182;2023-09-19T14:23:37;4.07;;;1.08;;
3307;SDS011;1666;48.898;9.182;2023-09-19T14:26:08;6.05;;;1.50;;
3307;SDS011;1666;48.898;9.182;2023-09-19T14:28:39;2.30;;;0.95;;
3307;SDS011;1666;48.898;9.182;2023-09-19T14:31:09;2.58;;;0.98;;
3307;SDS011;1666;48.898;9.182;2023-09-19T14:33:55;1.95;;;0.82;;
3307;SDS011;1666;48.898;9.182;2023-09-19T14:36:26;3.38;;;0.90;;
3307;SDS011;1666;48.898;9.182;2023-09-19T14:38:56;2.70;;;1.23;;
3307;SDS011;1666;48.898;9.182;2023-09-19T14:41:33;1.92;;;1.05;;
3307;SDS011;1666;48.898;9.182;2023-09-19T14:44:09;3.40;;;1.10;;
3307;SDS011;1666;48.898;9.182;2023-09-19T14:46:39;2.60;;;1.10;;
3307;SDS011;1666;48.898;9.182;2023-09-19T14:49:14;4.45;;;1.38;;
3307;SDS011;1666;48.898;9.182;2023-09-19T14:51:46;3.22;;;1.00;;
3307;SDS011;1666;48.898;9.182;2023-09-19T14:54:16;3.38;;;1.10;;
3307;SDS011;1666;48.898;9.182;2023-09-19T14:56:50;1.63;;;0.90;;
3307;SDS011;1666;48.898;9.182;2023-09-19T14:59:32;2.00;;;1.08;;
3307;SDS011;1666;48.898;9.182;2023-09-19T15:02:06;2.92;;;1.60;;
3307;SDS011;1666;48.898;9.182;2023-09-19T15:04:42;1.10;;;0.80;;
3307;SDS011;1666;48.898;9.182;2023-09-19T15:07:13;2.00;;;1.00;;
3307;SDS011;1666;48.898;9.182;2023-09-19T15:09:44;1.98;;;0.82;;
3307;SDS011;1666;48.898;9.182;2023-09-19T15:12:14;2.42;;;1.02;;
3307;SDS011;1666;48.898;9.182;2023-09-19T15:14:44;1.75;;;0.80;;
3307;SDS011;1666;48.898;9.182;2023-09-19T15:17:14;2.10;;;1.00;;
3307;SDS011;1666;48.898;9.182;2023-09-19T15:19:49;2.17;;;0.82;;
3307;SDS011;1666;48.898;9.182;2023-09-19T15:22:20;1.48;;;0.80;;
3307;SDS011;1666;48.898;9.182;2023-09-19T15:24:51;2.35;;;1.00;;
3307;SDS011;1666;48.898;9.182;2023-09-19T15:27:22;1.83;;;0.82;;
3307;SDS011;1666;48.898;9.182;2023-09-19T15:29:52;2.17;;;1.05;;
3307;SDS011;1666;48.898;9.182;2023-09-19T15:32:21;3.55;;;1.17;;
3307;SDS011;1666;48.898;9.182;2023-09-19T15:34:54;1.25;;;0.80;;
3307;SDS011;1666;48.898;9.182;2023-09-19T15:37:24;2.20;;;0.90;;
3307;SDS011;1666;48.898;9.182;2023-09-19T15:39:55;2.45;;;0.95;;
3307;SDS011;1666;48.898;9.182;2023-09-19T15:42:25;3.00;;;0.90;;
3307;SDS011;1666;48.898;9.182;2023-09-19T15:44:57;1.42;;;0.98;;
3307;SDS011;1666;48.898;9.182;2023-09-19T15:47:27;1.73;;;1.00;;
3307;SDS011;1666;48.898;9.182;2023-09-19T15:50:00;4.78;;;1.00;;
3307;SDS011;1666;48.898;9.182;2023-09-19T15:52:30;1.77;;;0.90;;
3307;SDS011;1666;48.898;9.182;2023-09-19T15:55:01;1.52;;;0.93;;
3307;SDS011;1666;48.898;9.182;2023-09-19T15:57:33;1.38;;;0.98;;
3307;SDS011;1666;48.898;9.182;2023-09-19T16:00:06;1.70;;;1.00;;
3307;SDS011;1666;48.898;9.182;2023-09-19T16:02:40;2.38;;;1.05;;
3307;SDS011;1666;48.898;9.182;2023-09-19T16:05:13;1.77;;;0.80;;
3307;SDS011;1666;48.898;9.182;2023-09-19T16:07:43;2.67;;;1.00;;
3307;SDS011;1666;48.898;9.182;2023-09-19T16:10:14;1.40;;;0.73;;
3307;SDS011;1666;48.898;9.182;2023-09-19T16:12:44;1.42;;;0.70;;
3307;SDS011;1666;48.898;9.182;2023-09-19T16:15:14;2.25;;;0.68;;
3307;SDS011;1666;48.898;9.182;2023-09-19T16:17:52;1.42;;;0.70;;
3307;SDS011;1666;48.898;9.182;2023-09-19T16:20:26;0.82;;;0.70;;
3307;SDS011;1666;48.898;9.182;2023-09-19T16:22:56;2.65;;;0.68;;
3307;SDS011;1666;48.898;9.182;2023-09-19T16:25:26;2.25;;;0.90;;
3307;SDS011;1666;48.898;9.182;2023-09-19T16:28:01;1.60;;;0.82;;
3307;SDS011;1666;48.898;9.182;2023-09-19T16:30:32;3.70;;;1.00;;